YNY weather

Yangyang International Airport
Gonghang-ro, Gang'weondo, South Korea

Public forecast

Using degrees Celsius for public forecast. Weather courtesy of forecast.io.

Current aviation weather report (METAR) for Yangyang International Airport

Retrieved 2019/10/24 04:00 UTC (5 minutes ago):

RKNY 240400Z 07005KT 040V110 9999 SCT035 BKN120 BKN200 20/11 Q1021 NOSIG

Aviation forecast (TAF) for Yangyang International Airport

Retrieved 2019-10-24 00:06 UTC (4 hours ago):

TAF TAF RKNY 232300Z 2400/2506 25005KT 9999 SCT030 BKN100 TX19/2404Z TN14/2421Z TX19/2504Z BECMG 2402/2403 02010KT BECMG 2410/2411 35006KT 4200 -RA SCT010 BKN030 OVC090 BECMG 2417/2418 6000 NSW BKN030 BKN120